SVKI weather

Piscuri Airport
Apure, Venezuela

Public forecast

Using degrees Celsius for public forecast. Weather courtesy of forecast.io.

METAR (pilot weather report)

Report is more than 6 hours old.

Closest report is Mayor Buenaventura Vivas International Airport, 14.7 nm (27.3 km) W. Retrieved 2018/06/14 13:00 UTC (10 months ago):

SVSO 141300Z /////KT 9999 BKN020 24/22 Q1016

TAF (pilot weather forecast)

Forecast is more than 12 hours old.

Closest forecast is San Antonio Del Tachira Airport, 42.6 nm (78.9 km) WNW. Retrieved 2019/04/23 00:00 UTC (1 day ago):

TAF SVSA 232200Z 2400/2500 18005KT 9999 SCT020 TX29/1900Z TN22/0900Z TEMPO 2401/2406 9000 -DZ SCT017 BKN090 FM240800 00000KT 9999 SCT023